Greenville, SC (29601)

2:01 AM EDT on May 01, 2017 (GMT -0400)
Camperdown Parking Deck | | Change Station

Elev 919 ft 34.85 °N, 82.40 °W | Updated 6 seconds ago

Partly Cloudy
Partly Cloudy
69.1 °F
Feels Like 69.1 °F
N
2.9
Wind Variable Wind from NE
Gusts 10.0 mph

Today
High -- | Low -- °F
--% Chance of Precip.
Yesterday
High -- | Low -- °F
Precip. -- in
Pressure 30.00 in
Visibility 10.0 miles
Clouds Clear
Dew Point 66 °F
Humidity 89%
Rainfall 0.00 in
Snow Depth Not available.
6:38 AM 8:15 PM
Waxing Crescent, 30% visible
METAR KGMU 010553Z AUTO 17009KT 10SM CLR 21/18 A3003 RMK AO2 SLP158 T02110183 10228 20211 58010
Pressure 30.00 in
Visibility 10.0 miles
Clouds Clear
Dew Point 66 °F
Humidity 89%
Rainfall 0.00 in
Snow Depth Not available.
6:38 AM 8:15 PM
Waxing Crescent, 30% visible
METAR KGMU 010553Z AUTO 17009KT 10SM CLR 21/18 A3003 RMK AO2 SLP158 T02110183 10228 20211 58010

Get Severe Weather Alerts

Thanks for signing up!

Be on the lookout for a verification email in your inbox.

You'll start receiving the daily forecast at 8 AM.

×

10-Day Weather Forecast

Almanac

Astronomy

May. 01, 2017 Rise Set
Actual Time
Civil Twilight
Nautical Twilight
Astronomical Twilight
Moon
Length of Visible Light
Length of Day
Tomorrow will be .
, % of the Moon is Illuminated

Today's Extremes

State Highs State Lows

Community

WunderPhotos

WunderBlog® & News

Nearby

Air Quality

  Air Quality AQ Index Pollutant
Not available.

Snow Depth

Station Depth Elevation

Earthquake Activity

City Distance Mag. Time & Date
Minimum magnitude displayed is 2.5.

Coastal Water Temperatures

Place Temperature

Stations

Nearby Weather Stations

Station Location Temp. Windchill Dew Point Humidity Wind Precip. Elev Updated Type
                   

Watches & Warnings

There are currently no watches in effect.